createdAt,value
2019-04-22T00:02:12.803Z,56.50
2019-04-22T00:04:55.050Z,55.90
2019-04-22T00:07:37.234Z,56.50
2019-04-22T00:10:13.368Z,58.70
2019-04-22T00:12:48.508Z,57.80
2019-04-22T00:15:10.187Z,57.90
2019-04-22T00:17:55.280Z,57.30
2019-04-22T00:20:14.802Z,57.40
2019-04-22T00:22:44.850Z,56.40
2019-04-22T00:27:57.530Z,57.00
2019-04-22T00:30:33.901Z,61.30
2019-04-22T00:33:18.701Z,58.60
2019-04-22T00:35:41.985Z,57.80
2019-04-22T00:38:17.226Z,57.40
2019-04-22T00:40:57.224Z,57.90
2019-04-22T00:43:21.056Z,59.00
2019-04-22T00:45:53.989Z,58.10
2019-04-22T00:48:27.785Z,57.80
2019-04-22T00:51:04.253Z,57.60
2019-04-22T00:53:33.427Z,57.60
2019-04-22T01:01:19.138Z,58.20
2019-04-22T01:03:59.045Z,58.00
2019-04-22T01:06:20.381Z,57.60
2019-04-22T01:13:55.728Z,57.50
2019-04-22T01:18:57.469Z,57.90
2019-04-22T01:21:36.371Z,57.70
2019-04-22T01:23:57.696Z,58.10
2019-04-22T01:26:33.108Z,57.90
2019-04-22T01:28:58.909Z,58.90
2019-04-22T01:31:20.453Z,59.00
2019-04-22T01:34:04.566Z,59.00
2019-04-22T01:36:35.299Z,58.30
2019-04-22T01:39:15.323Z,59.10
2019-04-22T01:41:55.366Z,60.20
2019-04-22T01:44:29.562Z,61.30
2019-04-22T01:46:50.821Z,62.20
2019-04-22T01:49:21.383Z,63.60
2019-04-22T01:52:01.449Z,61.70
2019-04-22T01:54:29.916Z,61.90
2019-04-22T01:56:57.972Z,62.00
2019-04-22T01:59:19.786Z,60.80
2019-04-22T02:04:38.210Z,63.70
2019-04-22T02:07:02.162Z,62.00
2019-04-22T02:09:40.720Z,61.70
2019-04-22T02:12:11.160Z,62.10
2019-04-22T02:14:39.804Z,63.70
2019-04-22T02:17:14.496Z,67.00
2019-04-22T02:19:48.073Z,65.20
2019-04-22T02:22:27.074Z,62.60
2019-04-22T02:24:47.409Z,63.90
2019-04-22T02:27:17.732Z,66.20
2019-04-22T02:29:47.657Z,64.30
2019-04-22T02:35:11.289Z,66.60
2019-04-22T02:37:23.480Z,67.10
2019-04-22T02:42:43.664Z,68.20
2019-04-22T02:55:11.515Z,67.50
2019-04-22T02:57:49.086Z,67.30
2019-04-22T03:00:18.422Z,70.60
2019-04-22T03:02:52.629Z,66.60
2019-04-22T03:05:19.436Z,73.00
2019-04-22T03:07:50.647Z,74.40
2019-04-22T03:10:37.186Z,72.50
2019-04-22T03:12:49.013Z,72.20
2019-04-22T03:15:07.537Z,70.80
2019-04-22T03:17:51.650Z,72.70
2019-04-22T03:20:14.540Z,72.00
2019-04-22T03:22:59.599Z,73.40
2019-04-22T03:25:51.482Z,72.10
2019-04-22T03:27:46.375Z,70.20
2019-04-22T03:30:48.164Z,71.10
2019-04-22T03:40:36.837Z,68.70
2019-04-22T03:50:36.478Z,69.60
2019-04-22T03:55:43.367Z,71.00
2019-04-22T03:58:11.059Z,71.60
2019-04-22T04:03:19.250Z,71.10
2019-04-22T04:05:57.869Z,69.50
2019-04-22T04:08:26.388Z,71.50
2019-04-22T04:16:10.519Z,68.80
2019-04-22T04:18:29.570Z,69.30
2019-04-22T04:21:16.558Z,70.60
2019-04-22T04:26:35.181Z,72.50
2019-04-22T04:28:53.214Z,71.30
2019-04-22T04:36:23.715Z,72.10
2019-04-22T04:41:29.055Z,70.90
2019-04-22T04:44:01.479Z,70.10
2019-04-22T04:49:02.867Z,70.90
2019-04-22T04:54:05.695Z,72.70
2019-04-22T05:01:35.623Z,71.70
2019-04-22T05:04:14.712Z,71.50
2019-04-22T05:09:16.622Z,68.20
2019-04-22T05:11:49.905Z,66.70
2019-04-22T05:14:09.504Z,67.70
2019-04-22T05:16:41.179Z,66.10
2019-04-22T05:19:15.437Z,68.00
2019-04-22T05:21:48.588Z,65.70
2019-04-22T05:26:48.737Z,65.60
2019-04-22T05:29:19.443Z,66.90
2019-04-22T05:31:52.316Z,67.40
2019-04-22T05:34:21.578Z,65.80
2019-04-22T05:36:52.486Z,65.60
2019-04-22T05:39:24.289Z,65.40
2019-04-22T05:41:54.724Z,64.70
2019-04-22T05:44:32.523Z,65.30
2019-04-22T05:46:54.452Z,65.70
2019-04-22T05:49:41.697Z,65.80
2019-04-22T05:51:54.926Z,65.40
2019-04-22T05:54:32.685Z,63.60
2019-04-22T05:57:00.550Z,63.40
2019-04-22T05:59:39.613Z,62.60
2019-04-22T06:02:13.520Z,63.20
2019-04-22T06:04:46.320Z,61.30
2019-04-22T06:07:13.802Z,60.60
2019-04-22T06:09:43.359Z,62.10
2019-04-22T06:12:14.350Z,61.60
2019-04-22T06:15:00.048Z,62.20
2019-04-22T06:17:35.418Z,60.50
2019-04-22T06:20:04.254Z,59.70
2019-04-22T06:22:46.847Z,58.80
2019-04-22T06:25:16.999Z,60.70
2019-04-22T06:30:11.144Z,58.10
2019-04-22T06:33:00.821Z,58.20
2019-04-22T06:35:19.841Z,56.30
2019-04-22T06:37:59.823Z,56.30
2019-04-22T06:40:13.084Z,57.30
2019-04-22T06:42:51.953Z,54.90
2019-04-22T06:45:18.968Z,54.60
2019-04-22T06:50:23.055Z,54.00
2019-04-22T06:52:52.288Z,55.70
2019-04-22T06:55:28.450Z,53.90
2019-04-22T06:57:51.130Z,53.20
2019-04-22T07:00:24.798Z,52.00
2019-04-22T07:03:23.263Z,54.00
2019-04-22T07:05:29.257Z,53.50
2019-04-22T07:08:04.376Z,51.30
2019-04-22T07:10:43.338Z,50.70
2019-04-22T07:13:11.495Z,52.50
2019-04-22T07:15:50.506Z,48.00
2019-04-22T07:18:18.177Z,50.20
2019-04-22T07:20:55.448Z,52.20
2019-04-22T07:23:21.535Z,48.30
2019-04-22T07:25:50.234Z,48.60
2019-04-22T07:28:21.642Z,48.20
2019-04-22T07:30:54.530Z,49.20
2019-04-22T07:36:32.961Z,47.20
2019-04-22T07:38:36.169Z,45.30
2019-04-22T07:40:56.159Z,46.80
2019-04-22T07:46:18.738Z,47.10
2019-04-22T07:48:45.311Z,46.60
2019-04-22T07:51:07.496Z,46.10
2019-04-22T07:53:39.480Z,47.60
2019-04-22T07:56:11.864Z,44.10
2019-04-22T07:58:45.709Z,45.80
2019-04-22T08:01:12.453Z,46.40
2019-04-22T08:06:23.639Z,43.00
2019-04-22T08:08:58.401Z,44.20
2019-04-22T08:11:37.541Z,42.90
2019-04-22T08:13:52.748Z,44.10
2019-04-22T08:16:23.337Z,45.00
2019-04-22T08:19:02.990Z,43.30
2019-04-22T08:21:36.294Z,42.90
2019-04-22T08:24:01.226Z,43.90
2019-04-22T08:26:32.231Z,43.20
2019-04-22T08:29:09.026Z,45.00
2019-04-22T08:31:40.316Z,42.80
2019-04-22T08:36:53.992Z,42.10
2019-04-22T08:39:17.215Z,41.60
2019-04-22T08:44:20.091Z,43.60
2019-04-22T08:46:48.665Z,42.10
2019-04-22T08:49:16.069Z,41.90
2019-04-22T08:51:49.251Z,41.60
2019-04-22T08:54:26.062Z,42.00
2019-04-22T08:56:55.540Z,40.60
2019-04-22T08:59:24.773Z,40.30
2019-04-22T09:01:57.348Z,39.20
2019-04-22T09:04:23.328Z,43.50
2019-04-22T09:09:39.376Z,40.70
2019-04-22T09:12:10.383Z,41.50
2019-04-22T09:14:41.654Z,41.70
2019-04-22T09:19:40.503Z,39.10
2019-04-22T09:24:46.921Z,41.70
2019-04-22T09:27:26.568Z,41.80
2019-04-22T09:29:56.482Z,41.20
2019-04-22T09:32:38.301Z,40.20
2019-04-22T09:34:51.370Z,40.50
2019-04-22T09:37:34.598Z,38.80
2019-04-22T09:40:00.972Z,39.00
2019-04-22T09:42:31.915Z,39.40
2019-04-22T09:45:04.006Z,38.50
2019-04-22T09:47:33.889Z,38.40
2019-04-22T09:50:12.632Z,39.30
2019-04-22T09:52:35.892Z,38.40
2019-04-22T09:57:38.411Z,39.00
2019-04-22T10:00:10.252Z,36.90
2019-04-22T10:05:11.533Z,38.10
2019-04-22T10:07:44.894Z,37.80
2019-04-22T10:10:17.102Z,38.70
2019-04-22T10:13:06.383Z,37.80
2019-04-22T10:15:13.872Z,38.00
2019-04-22T10:17:52.275Z,38.70
2019-04-22T10:20:24.951Z,37.90
2019-04-22T10:22:51.980Z,36.90
2019-04-22T10:25:27.997Z,36.70
2019-04-22T10:28:06.513Z,36.50
2019-04-22T10:30:40.462Z,37.40
2019-04-22T10:32:56.259Z,37.30
2019-04-22T10:35:14.381Z,38.50
2019-04-22T10:37:40.691Z,38.40
2019-04-22T10:40:19.606Z,37.60
2019-04-22T10:42:51.443Z,37.60
2019-04-22T10:45:21.975Z,37.50
2019-04-22T10:47:52.290Z,36.70
2019-04-22T10:50:24.635Z,37.10
2019-04-22T10:52:55.256Z,37.90
2019-04-22T10:55:27.545Z,36.90
2019-04-22T10:57:58.957Z,36.90
2019-04-22T11:00:29.350Z,36.60
2019-04-22T11:03:00.112Z,36.60
2019-04-22T11:05:30.600Z,36.30
2019-04-22T11:08:04.922Z,36.20
2019-04-22T11:10:44.017Z,34.80
2019-04-22T11:13:05.121Z,36.10
2019-04-22T11:15:34.909Z,35.60
2019-04-22T11:18:07.314Z,35.80
2019-04-22T11:20:37.806Z,35.60
2019-04-22T11:23:08.838Z,34.70
2019-04-22T11:25:39.632Z,35.60
2019-04-22T11:28:11.785Z,35.30
2019-04-22T11:30:42.757Z,37.30
2019-04-22T11:33:12.609Z,37.10
2019-04-22T11:35:43.765Z,36.00
2019-04-22T11:38:15.054Z,37.20
2019-04-22T11:40:49.948Z,35.70
2019-04-22T11:43:19.909Z,36.00
2019-04-22T11:45:51.209Z,34.00
2019-04-22T11:48:21.447Z,35.00
2019-04-22T11:50:51.650Z,34.20
2019-04-22T11:53:22.608Z,34.50
2019-04-22T11:55:53.155Z,36.30
2019-04-22T11:58:24.441Z,34.90
2019-04-22T12:00:55.381Z,34.70
2019-04-22T12:03:27.146Z,34.50
2019-04-22T12:05:58.010Z,34.80
2019-04-22T12:08:29.088Z,36.60
2019-04-22T12:11:02.205Z,35.90
2019-04-22T12:13:30.777Z,36.50
2019-04-22T12:16:00.958Z,34.80
2019-04-22T12:18:31.237Z,35.00
2019-04-22T12:21:01.306Z,35.20
2019-04-22T12:23:32.701Z,34.00
2019-04-22T12:26:08.675Z,36.00
2019-04-22T12:28:35.150Z,34.00
2019-04-22T12:31:05.709Z,34.50
2019-04-22T12:33:37.145Z,33.60
2019-04-22T12:36:10.682Z,34.10
2019-04-22T12:38:41.698Z,33.90
2019-04-22T12:41:12.230Z,37.30
2019-04-22T12:43:43.115Z,34.80
2019-04-22T12:46:14.447Z,35.80
2019-04-22T12:48:45.406Z,34.80
2019-04-22T12:51:15.943Z,35.20
2019-04-22T12:53:46.252Z,34.80
2019-04-22T12:56:17.676Z,35.90
2019-04-22T12:58:47.685Z,34.00
2019-04-22T13:01:17.371Z,34.40
2019-04-22T13:03:47.037Z,34.50
2019-04-22T13:06:17.587Z,33.70
2019-04-22T13:08:47.942Z,34.90
2019-04-22T13:11:22.014Z,33.90
2019-04-22T13:13:51.131Z,34.80
2019-04-22T13:16:20.937Z,35.60
2019-04-22T13:18:56.462Z,36.30
2019-04-22T13:21:24.551Z,34.50
2019-04-22T13:23:54.887Z,34.10
2019-04-22T13:26:25.432Z,35.90
2019-04-22T13:28:56.928Z,34.30
2019-04-22T13:31:28.695Z,34.50
2019-04-22T13:34:01.456Z,33.60
2019-04-22T13:36:31.784Z,34.70
2019-04-22T13:39:02.985Z,34.20
2019-04-22T13:41:40.591Z,34.60
2019-04-22T13:44:04.985Z,34.10
2019-04-22T13:46:35.555Z,34.90
2019-04-22T13:49:34.019Z,34.40
2019-04-22T13:52:15.050Z,34.00
2019-04-22T13:56:56.932Z,34.80
2019-04-22T13:59:26.148Z,34.90
2019-04-22T14:01:50.734Z,34.60
2019-04-22T14:04:25.039Z,33.40
2019-04-22T14:06:54.920Z,34.80
2019-04-22T14:09:26.449Z,34.20
2019-04-22T14:12:03.001Z,34.10
2019-04-22T14:14:28.160Z,34.60
2019-04-22T14:16:58.775Z,34.30
2019-04-22T14:19:32.369Z,34.00
2019-04-22T14:22:03.964Z,35.10
2019-04-22T14:24:34.390Z,34.50
2019-04-22T14:27:19.627Z,34.00
2019-04-22T14:29:37.580Z,34.80
2019-04-22T14:32:16.600Z,35.90
2019-04-22T14:34:39.587Z,33.60
2019-04-22T14:37:09.958Z,34.20
2019-04-22T14:39:41.969Z,35.10
2019-04-22T14:42:33.457Z,34.00
2019-04-22T14:45:18.833Z,31.60
2019-04-22T14:47:39.710Z,33.40
2019-04-22T14:50:06.301Z,32.20
2019-04-22T14:52:44.534Z,32.30
2019-04-22T14:55:03.900Z,33.40
2019-04-22T14:57:26.264Z,32.80
2019-04-22T14:59:55.775Z,33.40
2019-04-22T15:02:25.906Z,33.90
2019-04-22T15:04:56.460Z,33.30
2019-04-22T15:07:26.653Z,31.50
2019-04-22T15:09:57.650Z,34.40
2019-04-22T15:12:36.711Z,32.90
2019-04-22T15:15:01.592Z,34.20
2019-04-22T15:17:47.115Z,34.00
2019-04-22T15:20:35.077Z,34.10
2019-04-22T15:23:13.160Z,35.40
2019-04-22T15:25:44.207Z,34.40
2019-04-22T15:28:15.278Z,32.70
2019-04-22T15:30:45.695Z,33.80
2019-04-22T15:33:17.162Z,33.60
2019-04-22T15:35:49.355Z,33.40
2019-04-22T15:38:22.769Z,34.40
2019-04-22T15:40:56.548Z,33.30
2019-04-22T15:43:29.738Z,34.30
2019-04-22T15:46:01.814Z,34.80
2019-04-22T15:48:32.367Z,35.10
2019-04-22T15:51:02.852Z,33.00
2019-04-22T15:53:33.778Z,32.90
2019-04-22T15:56:04.970Z,34.50
2019-04-22T15:58:39.640Z,34.70
2019-04-22T16:01:33.642Z,35.00
2019-04-22T16:04:02.851Z,33.90
2019-04-22T16:06:32.910Z,34.40
2019-04-22T16:09:03.025Z,34.20
2019-04-22T16:11:33.916Z,33.60
2019-04-22T16:14:06.610Z,34.20
2019-04-22T16:16:37.134Z,34.30
2019-04-22T16:19:08.614Z,34.30
2019-04-22T16:21:47.537Z,36.60
2019-04-22T16:24:20.449Z,35.20
2019-04-22T16:26:56.400Z,33.90
2019-04-22T16:29:27.440Z,34.80
2019-04-22T16:31:57.709Z,34.40
2019-04-22T16:34:29.311Z,35.70
2019-04-22T16:37:00.830Z,34.50
2019-04-22T16:39:31.112Z,34.40
2019-04-22T16:42:02.496Z,33.30
2019-04-22T16:44:34.395Z,34.70
2019-04-22T16:47:06.046Z,35.10
2019-04-22T16:49:37.282Z,35.30
2019-04-22T16:52:07.978Z,36.20
2019-04-22T16:54:39.969Z,34.50
2019-04-22T16:57:12.259Z,36.30
2019-04-22T16:59:42.786Z,35.80
2019-04-22T17:02:49.833Z,35.60
2019-04-22T17:08:52.901Z,35.40
2019-04-22T17:11:22.671Z,34.20
2019-04-22T17:13:53.081Z,34.80
2019-04-22T17:16:24.174Z,35.60
2019-04-22T17:18:54.280Z,35.80
2019-04-22T17:21:25.864Z,35.40
2019-04-22T17:23:56.020Z,35.60
2019-04-22T17:26:26.507Z,34.70
2019-04-22T17:28:57.660Z,36.20
2019-04-22T17:31:28.867Z,36.40
2019-04-22T17:33:59.224Z,36.20
2019-04-22T17:36:29.814Z,37.10
2019-04-22T17:39:14.614Z,35.80
2019-04-22T17:41:50.657Z,37.20
2019-04-22T17:44:40.086Z,35.90
2019-04-22T17:47:20.253Z,37.00
2019-04-22T17:49:59.958Z,36.60
2019-04-22T17:52:37.561Z,37.20
2019-04-22T17:55:10.044Z,37.60
2019-04-22T18:03:39.152Z,38.00
2019-04-22T18:06:10.398Z,38.40
2019-04-22T19:30:16.595Z,45.10
2019-04-22T19:32:50.880Z,45.90
2019-04-22T19:35:17.189Z,45.40
2019-04-22T19:37:46.696Z,45.50
2019-04-22T19:40:24.138Z,46.00
2019-04-22T19:42:59.375Z,46.90
2019-04-22T19:45:20.232Z,46.40
2019-04-22T19:48:03.601Z,46.40
2019-04-22T19:50:28.017Z,46.10
2019-04-22T19:53:01.317Z,47.70
2019-04-22T19:55:29.696Z,47.50
2019-04-22T19:57:54.768Z,47.70
2019-04-22T20:00:38.777Z,48.80
2019-04-22T20:03:37.737Z,48.50
2019-04-22T20:06:01.322Z,48.70
2019-04-22T20:08:30.921Z,48.00
2019-04-22T20:11:07.357Z,50.30
2019-04-22T20:13:42.769Z,49.20
2019-04-22T20:15:58.290Z,50.00
2019-04-22T20:18:50.531Z,49.40
2019-04-22T20:21:14.269Z,50.00
2019-04-22T20:23:32.892Z,49.90
2019-04-22T20:26:02.359Z,50.90
2019-04-22T20:28:41.782Z,49.80
2019-04-22T20:31:14.788Z,50.60
2019-04-22T20:33:51.375Z,50.20
2019-04-22T20:36:26.750Z,50.80
2019-04-22T20:38:45.404Z,52.00
2019-04-22T20:41:22.802Z,50.80
2019-04-22T20:43:56.542Z,50.90
2019-04-22T20:46:24.072Z,51.60
2019-04-22T20:49:04.846Z,51.90
2019-04-22T20:51:36.148Z,51.70
2019-04-22T20:54:05.546Z,51.70
2019-04-22T20:56:25.152Z,50.80
2019-04-22T20:59:01.980Z,50.90
2019-04-22T21:01:33.432Z,50.10
2019-04-22T21:03:50.658Z,50.40
2019-04-22T21:06:33.439Z,50.10
2019-04-22T21:09:04.687Z,50.20
2019-04-22T21:11:34.069Z,50.40
2019-04-22T21:14:01.495Z,50.10
2019-04-22T21:16:40.058Z,50.10
2019-04-22T21:19:11.811Z,50.30
2019-04-22T21:21:46.102Z,50.10
2019-04-22T21:24:03.130Z,50.20
2019-04-22T21:26:40.074Z,50.30
2019-04-22T21:29:09.472Z,50.60
2019-04-22T21:31:47.793Z,50.50
2019-04-22T21:34:18.986Z,50.50
2019-04-22T21:36:47.869Z,50.40
2019-04-22T21:39:22.507Z,50.80
2019-04-22T21:41:46.910Z,51.20
2019-04-22T21:44:19.620Z,50.50
2019-04-22T21:47:01.003Z,50.60
2019-04-22T21:49:25.090Z,50.50
2019-04-22T21:51:53.853Z,50.70
2019-04-22T21:54:28.646Z,51.40
2019-04-22T21:57:15.166Z,51.30
2019-04-22T21:59:33.319Z,51.50
2019-04-22T22:02:09.900Z,51.80
2019-04-22T22:04:38.649Z,51.50
2019-04-22T22:07:01.052Z,51.90
2019-04-22T22:09:44.069Z,51.40
2019-04-22T22:12:17.854Z,51.80
2019-04-22T22:14:50.870Z,52.10
2019-04-22T22:17:20.701Z,51.90
2019-04-22T22:19:49.551Z,52.10
2019-04-22T22:24:59.977Z,52.40
2019-04-22T22:27:28.274Z,52.80
2019-04-22T22:30:21.917Z,53.00
2019-04-22T22:32:35.235Z,53.30
2019-04-22T22:35:03.044Z,53.40
2019-04-22T22:37:23.754Z,53.10
2019-04-22T22:39:56.707Z,53.00
2019-04-22T22:42:22.237Z,53.10
2019-04-22T22:44:54.540Z,54.20
2019-04-22T22:47:38.333Z,53.60
2019-04-22T22:50:09.341Z,53.10
2019-04-22T22:55:13.410Z,53.60
2019-04-22T22:57:44.558Z,53.90
2019-04-22T23:00:11.089Z,53.90
2019-04-22T23:03:03.418Z,55.20
2019-04-22T23:05:21.787Z,54.70
2019-04-22T23:07:55.437Z,55.90
2019-04-22T23:10:16.045Z,55.80
2019-04-22T23:12:56.032Z,55.90
2019-04-22T23:15:21.732Z,55.90
2019-04-22T23:17:37.009Z,56.60
2019-04-22T23:20:06.825Z,56.70
2019-04-22T23:23:04.173Z,56.50
2019-04-22T23:25:42.886Z,57.40
2019-04-22T23:28:26.589Z,56.20
2019-04-22T23:31:09.451Z,56.40
2019-04-22T23:33:53.838Z,57.70
2019-04-22T23:36:27.921Z,56.70
2019-04-22T23:39:14.041Z,58.10
2019-04-22T23:41:46.283Z,56.70
2019-04-22T23:44:13.849Z,57.20
2019-04-22T23:46:42.638Z,57.10
2019-04-22T23:49:11.798Z,57.00
2019-04-22T23:51:55.662Z,58.20
2019-04-22T23:54:22.192Z,57.70
2019-04-22T23:56:43.526Z,57.40
2019-04-22T23:59:37.929Z,58.00
